sensor_id;sensor_type;location;lat;lon;timestamp;pressure;altitude;pressure_sealevel;temperature;humidity
30463;BME280;17256;43.618;25.336;2022-09-09T00:01:23;100617.97;;;22.88;59.50
30463;BME280;17256;43.618;25.336;2022-09-09T00:04:09;100611.19;;;22.79;60.37
30463;BME280;17256;43.618;25.336;2022-09-09T00:07:01;100610.63;;;22.77;60.39
30463;BME280;17256;43.618;25.336;2022-09-09T00:15:10;100466.22;;;21.89;60.57
30463;BME280;17256;43.618;25.336;2022-09-09T00:18:17;100603.94;;;22.72;60.68
30463;BME280;17256;43.618;25.336;2022-09-09T00:20:58;100601.69;;;22.69;60.77
30463;BME280;17256;43.618;25.336;2022-09-09T00:23:39;100483.53;;;21.91;61.52
30463;BME280;17256;43.618;25.336;2022-09-09T00:26:17;100495.28;;;21.98;61.37
30463;BME280;17256;43.618;25.336;2022-09-09T00:31:28;100417.22;;;21.56;61.44
30463;BME280;17256;43.618;25.336;2022-09-09T00:34:19;100470.69;;;21.95;61.09
30463;BME280;17256;43.618;25.336;2022-09-09T00:36:58;100297.16;;;20.68;61.23
30463;BME280;17256;43.618;25.336;2022-09-09T00:39:36;100401.28;;;21.41;61.51
30463;BME280;17256;43.618;25.336;2022-09-09T00:42:25;100388.38;;;21.30;61.60
30463;BME280;17256;43.618;25.336;2022-09-09T00:45:45;100244.91;;;20.43;61.66
30463;BME280;17256;43.618;25.336;2022-09-09T00:47:53;100221.72;;;20.38;61.47
30463;BME280;17256;43.618;25.336;2022-09-09T00:50:38;100283.22;;;20.73;62.32
30463;BME280;17256;43.618;25.336;2022-09-09T00:56:18;100529.47;;;22.16;62.65
30463;BME280;17256;43.618;25.336;2022-09-09T00:59:21;100400.94;;;21.28;62.93
30463;BME280;17256;43.618;25.336;2022-09-09T01:01:42;100500.53;;;21.69;63.38
30463;BME280;17256;43.618;25.336;2022-09-09T01:04:25;100371.53;;;21.00;63.23
30463;BME280;17256;43.618;25.336;2022-09-09T01:07:02;100548.41;;;21.98;64.06
30463;BME280;17256;43.618;25.336;2022-09-09T01:09:42;100465.81;;;21.45;64.37
30463;BME280;17256;43.618;25.336;2022-09-09T01:12:16;100567.13;;;21.93;64.95
30463;BME280;17256;43.618;25.336;2022-09-09T01:15:03;100444.84;;;21.32;65.06
30463;BME280;17256;43.618;25.336;2022-09-09T01:20:18;100395.53;;;21.06;65.00
30463;BME280;17256;43.618;25.336;2022-09-09T01:29:02;100301.16;;;20.30;66.10
30463;BME280;17256;43.618;25.336;2022-09-09T01:31:50;100574.47;;;22.04;66.61
30463;BME280;17256;43.618;25.336;2022-09-09T01:34:22;100579.81;;;22.10;66.60
30463;BME280;17256;43.618;25.336;2022-09-09T01:37:02;100314.66;;;20.48;66.94
30463;BME280;17256;43.618;25.336;2022-09-09T01:39:42;100474.47;;;21.38;66.58
30463;BME280;17256;43.618;25.336;2022-09-09T01:42:16;100354.13;;;20.77;66.64
30463;BME280;17256;43.618;25.336;2022-09-09T01:44:42;100400.56;;;20.99;66.98
30463;BME280;17256;43.618;25.336;2022-09-09T01:47:08;100440.91;;;21.28;67.49
30463;BME280;17256;43.618;25.336;2022-09-09T01:49:48;100474.47;;;21.43;67.36
30463;BME280;17256;43.618;25.336;2022-09-09T01:52:23;100217.22;;;19.79;67.53
30463;BME280;17256;43.618;25.336;2022-09-09T01:54:51;100176.97;;;19.55;67.28
30463;BME280;17256;43.618;25.336;2022-09-09T01:57:50;100584.00;;;22.08;67.63
30463;BME280;17256;43.618;25.336;2022-09-09T02:00:20;100374.47;;;20.73;67.58
30463;BME280;17256;43.618;25.336;2022-09-09T02:03:29;100589.81;;;22.01;67.93
30463;BME280;17256;43.618;25.336;2022-09-09T02:06:13;100592.91;;;22.05;67.77
30463;BME280;17256;43.618;25.336;2022-09-09T02:08:47;100478.38;;;21.37;68.25
30463;BME280;17256;43.618;25.336;2022-09-09T02:11:18;100592.06;;;22.04;67.97
30463;BME280;17256;43.618;25.336;2022-09-09T02:14:04;100485.38;;;21.40;68.00
30463;BME280;17256;43.618;25.336;2022-09-09T02:16:50;100559.03;;;21.86;68.60
30463;BME280;17256;43.618;25.336;2022-09-09T02:19:59;100558.72;;;21.83;68.56
30463;BME280;17256;43.618;25.336;2022-09-09T02:22:41;100225.28;;;19.71;68.86
30463;BME280;17256;43.618;25.336;2022-09-09T02:25:12;100607.69;;;21.90;69.00
30463;BME280;17256;43.618;25.336;2022-09-09T02:27:43;100298.25;;;20.10;69.51
30463;BME280;17256;43.618;25.336;2022-09-09T02:30:12;100493.19;;;21.38;69.23
30463;BME280;17256;43.618;25.336;2022-09-09T02:32:44;100580.28;;;21.87;69.27
30463;BME280;17256;43.618;25.336;2022-09-09T02:35:19;100504.94;;;21.45;69.71
30463;BME280;17256;43.618;25.336;2022-09-09T02:37:46;100482.03;;;21.43;68.65
30463;BME280;17256;43.618;25.336;2022-09-09T02:40:14;100343.72;;;20.57;68.68
30463;BME280;17256;43.618;25.336;2022-09-09T02:43:16;100567.97;;;21.93;68.90
30463;BME280;17256;43.618;25.336;2022-09-09T02:52:29;100248.78;;;19.85;69.86
30463;BME280;17256;43.618;25.336;2022-09-09T02:55:06;100475.75;;;21.15;69.59
30463;BME280;17256;43.618;25.336;2022-09-09T02:57:40;100503.53;;;21.37;69.60
30463;BME280;17256;43.618;25.336;2022-09-09T03:00:26;100469.03;;;21.16;70.00
30463;BME280;17256;43.618;25.336;2022-09-09T03:03:17;100570.19;;;21.86;69.75
30463;BME280;17256;43.618;25.336;2022-09-09T03:05:57;100246.84;;;19.90;70.10
30463;BME280;17256;43.618;25.336;2022-09-09T03:08:32;100570.22;;;21.91;69.24
30463;BME280;17256;43.618;25.336;2022-09-09T03:11:20;100569.66;;;21.89;69.51
30463;BME280;17256;43.618;25.336;2022-09-09T03:14:16;100467.38;;;21.20;69.69
30463;BME280;17256;43.618;25.336;2022-09-09T03:17:06;100458.06;;;21.05;70.10
30463;BME280;17256;43.618;25.336;2022-09-09T03:19:52;100238.41;;;19.80;70.32
30463;BME280;17256;43.618;25.336;2022-09-09T03:22:48;100371.56;;;20.47;70.23
30463;BME280;17256;43.618;25.336;2022-09-09T03:25:47;100266.09;;;19.92;70.01
30463;BME280;17256;43.618;25.336;2022-09-09T03:28:40;100249.06;;;19.88;70.49
30463;BME280;17256;43.618;25.336;2022-09-09T03:31:22;100583.06;;;21.87;69.53
30463;BME280;17256;43.618;25.336;2022-09-09T03:33:59;100228.63;;;19.73;69.83
30463;BME280;17256;43.618;25.336;2022-09-09T03:36:36;100226.66;;;19.68;70.67
30463;BME280;17256;43.618;25.336;2022-09-09T03:39:41;100310.75;;;20.07;70.74
30463;BME280;17256;43.618;25.336;2022-09-09T03:42:14;100420.50;;;20.70;70.47
30463;BME280;17256;43.618;25.336;2022-09-09T03:44:58;100382.19;;;20.50;70.68
30463;BME280;17256;43.618;25.336;2022-09-09T03:47:28;100497.91;;;21.32;70.00
30463;BME280;17256;43.618;25.336;2022-09-09T03:50:06;100322.84;;;20.23;70.03
30463;BME280;17256;43.618;25.336;2022-09-09T03:52:49;100224.31;;;19.55;70.14
30463;BME280;17256;43.618;25.336;2022-09-09T03:55:27;100390.84;;;20.54;70.54
30463;BME280;17256;43.618;25.336;2022-09-09T03:57:59;100253.19;;;19.81;69.23
30463;BME280;17256;43.618;25.336;2022-09-09T04:00:35;100461.16;;;21.03;69.34
30463;BME280;17256;43.618;25.336;2022-09-09T04:03:06;100251.47;;;19.75;69.19
30463;BME280;17256;43.618;25.336;2022-09-09T04:05:43;100308.03;;;20.12;69.16
30463;BME280;17256;43.618;25.336;2022-09-09T04:08:41;100597.63;;;21.94;69.50
30463;BME280;17256;43.618;25.336;2022-09-09T04:11:16;100324.84;;;20.27;68.98
30463;BME280;17256;43.618;25.336;2022-09-09T04:13:54;100583.69;;;22.04;69.07
30463;BME280;17256;43.618;25.336;2022-09-09T04:16:23;100381.47;;;20.75;68.56
30463;BME280;17256;43.618;25.336;2022-09-09T04:19:24;100441.94;;;21.12;68.73
30463;BME280;17256;43.618;25.336;2022-09-09T04:22:03;100351.84;;;20.59;68.73
30463;BME280;17256;43.618;25.336;2022-09-09T04:24:35;100380.44;;;20.97;68.29
30463;BME280;17256;43.618;25.336;2022-09-09T04:27:06;100258.41;;;20.14;67.79
30463;BME280;17256;43.618;25.336;2022-09-09T04:30:23;100495.84;;;21.95;67.17
30463;BME280;17256;43.618;25.336;2022-09-09T04:33:09;100276.53;;;20.64;66.05
30463;BME280;17256;43.618;25.336;2022-09-09T04:35:49;100395.97;;;21.55;65.47
30463;BME280;17256;43.618;25.336;2022-09-09T04:38:33;100476.59;;;22.19;65.54
30463;BME280;17256;43.618;25.336;2022-09-09T04:41:05;100435.16;;;22.01;64.55
30463;BME280;17256;43.618;25.336;2022-09-09T04:43:41;100532.25;;;22.71;64.79
30463;BME280;17256;43.618;25.336;2022-09-09T04:46:54;100490.84;;;22.53;63.73
30463;BME280;17256;43.618;25.336;2022-09-09T04:49:44;100429.59;;;22.21;63.73
30463;BME280;17256;43.618;25.336;2022-09-09T04:52:25;100510.13;;;22.95;63.29
30463;BME280;17256;43.618;25.336;2022-09-09T04:55:30;100619.75;;;23.74;62.46
30463;BME280;17256;43.618;25.336;2022-09-09T04:58:16;100390.94;;;22.54;61.58
30463;BME280;17256;43.618;25.336;2022-09-09T05:01:11;100612.91;;;24.05;61.62
30463;BME280;17256;43.618;25.336;2022-09-09T05:03:53;100287.81;;;22.17;60.57
30463;BME280;17256;43.618;25.336;2022-09-09T05:06:38;100377.72;;;22.90;60.34
30463;BME280;17256;43.618;25.336;2022-09-09T05:10:25;100612.34;;;24.52;59.97
30463;BME280;17256;43.618;25.336;2022-09-09T05:14:08;100604.28;;;24.75;59.47
30463;BME280;17256;43.618;25.336;2022-09-09T05:17:59;100372.09;;;23.44;58.42
30463;BME280;17256;43.618;25.336;2022-09-09T05:21:32;100276.28;;;22.98;58.02
30463;BME280;17256;43.618;25.336;2022-09-09T05:24:49;100468.28;;;24.23;57.62
30463;BME280;17256;43.618;25.336;2022-09-09T05:27:33;100283.72;;;23.18;58.27
30463;BME280;17256;43.618;25.336;2022-09-09T05:30:42;100240.53;;;23.24;57.49
30463;BME280;17256;43.618;25.336;2022-09-09T05:35:06;100585.47;;;25.62;56.70
30463;BME280;17256;43.618;25.336;2022-09-09T05:38:56;100585.34;;;25.72;56.43
30463;BME280;17256;43.618;25.336;2022-09-09T05:45:38;100397.91;;;24.96;55.79
30463;BME280;17256;43.618;25.336;2022-09-09T05:48:54;100435.69;;;25.52;55.19
30463;BME280;17256;43.618;25.336;2022-09-09T05:52:39;100218.00;;;24.21;54.93
30463;BME280;17256;43.618;25.336;2022-09-09T05:56:08;100433.03;;;25.84;54.22
30463;BME280;17256;43.618;25.336;2022-09-09T06:08:53;100248.56;;;24.89;53.30
30463;BME280;17256;43.618;25.336;2022-09-09T06:13:09;100451.59;;;26.18;53.25
30463;BME280;17256;43.618;25.336;2022-09-09T06:45:43;100467.47;;;28.56;49.14
30463;BME280;17256;43.618;25.336;2022-09-09T06:48:08;100504.78;;;28.97;48.83
30463;BME280;17256;43.618;25.336;2022-09-09T06:50:34;100587.66;;;29.68;49.15
30463;BME280;17256;43.618;25.336;2022-09-09T06:53:16;100545.25;;;29.86;49.14
30463;BME280;17256;43.618;25.336;2022-09-09T06:55:43;100559.66;;;30.24;48.72
30463;BME280;17256;43.618;25.336;2022-09-09T06:58:11;100570.31;;;30.44;50.68
30463;BME280;17256;43.618;25.336;2022-09-09T07:00:37;100598.69;;;30.79;50.07
30463;BME280;17256;43.618;25.336;2022-09-09T07:03:04;100587.00;;;30.89;49.66
30463;BME280;17256;43.618;25.336;2022-09-09T07:05:31;100582.63;;;30.14;49.86
30463;BME280;17256;43.618;25.336;2022-09-09T07:07:57;100577.06;;;29.83;50.59
30463;BME280;17256;43.618;25.336;2022-09-09T07:10:30;100606.63;;;30.08;50.06
30463;BME280;17256;43.618;25.336;2022-09-09T07:12:56;100575.00;;;29.66;49.70
30463;BME280;17256;43.618;25.336;2022-09-09T07:15:23;100569.84;;;29.68;50.32
30463;BME280;17256;43.618;25.336;2022-09-09T07:18:02;100521.31;;;30.00;50.01
30463;BME280;17256;43.618;25.336;2022-09-09T07:20:28;100578.66;;;30.84;47.60
30463;BME280;17256;43.618;25.336;2022-09-09T07:22:55;100630.28;;;31.50;46.90
30463;BME280;17256;43.618;25.336;2022-09-09T07:25:22;100567.34;;;31.48;46.19
30463;BME280;17256;43.618;25.336;2022-09-09T07:27:47;100593.38;;;31.41;46.41
30463;BME280;17256;43.618;25.336;2022-09-09T07:30:14;100632.66;;;31.31;47.35
30463;BME280;17256;43.618;25.336;2022-09-09T07:32:40;100574.16;;;30.83;46.97
30463;BME280;17256;43.618;25.336;2022-09-09T07:35:06;100627.34;;;31.03;47.12
30463;BME280;17256;43.618;25.336;2022-09-09T07:37:38;100598.13;;;31.11;47.34
30463;BME280;17256;43.618;25.336;2022-09-09T07:40:05;100571.63;;;31.07;47.31
30463;BME280;17256;43.618;25.336;2022-09-09T07:42:31;100576.75;;;31.31;46.12
30463;BME280;17256;43.618;25.336;2022-09-09T07:44:57;100615.97;;;31.67;45.66
30463;BME280;17256;43.618;25.336;2022-09-09T07:47:23;100627.16;;;31.81;46.19
30463;BME280;17256;43.618;25.336;2022-09-09T07:49:50;100617.66;;;31.68;45.58
30463;BME280;17256;43.618;25.336;2022-09-09T07:52:19;100606.47;;;31.16;47.07
30463;BME280;17256;43.618;25.336;2022-09-09T07:54:46;100577.19;;;30.78;47.50
30463;BME280;17256;43.618;25.336;2022-09-09T07:57:12;100637.00;;;31.11;47.88
30463;BME280;17256;43.618;25.336;2022-09-09T07:59:38;100591.50;;;30.99;48.29
30463;BME280;17256;43.618;25.336;2022-09-09T08:02:04;100625.56;;;31.54;48.04
30463;BME280;17256;43.618;25.336;2022-09-09T08:04:32;100643.34;;;31.80;48.27
30463;BME280;17256;43.618;25.336;2022-09-09T08:07:15;100617.06;;;31.54;48.51
30463;BME280;17256;43.618;25.336;2022-09-09T08:09:47;100609.28;;;31.34;48.59
30463;BME280;17256;43.618;25.336;2022-09-09T08:12:20;100627.69;;;31.74;49.65
30463;BME280;17256;43.618;25.336;2022-09-09T08:14:46;100604.00;;;31.62;47.73
30463;BME280;17256;43.618;25.336;2022-09-09T08:17:11;100565.31;;;31.87;48.00
30463;BME280;17256;43.618;25.336;2022-09-09T08:19:37;100493.13;;;31.29;46.70
30463;BME280;17256;43.618;25.336;2022-09-09T08:22:08;100510.16;;;31.29;47.63
30463;BME280;17256;43.618;25.336;2022-09-09T08:24:36;100611.03;;;31.94;48.19
30463;BME280;17256;43.618;25.336;2022-09-09T08:27:02;100607.47;;;31.67;48.63
30463;BME280;17256;43.618;25.336;2022-09-09T08:29:41;100602.84;;;32.22;48.36
30463;BME280;17256;43.618;25.336;2022-09-09T08:32:10;100579.66;;;32.40;47.16
30463;BME280;17256;43.618;25.336;2022-09-09T08:34:38;100593.19;;;32.85;46.30
30463;BME280;17256;43.618;25.336;2022-09-09T08:37:08;100531.75;;;32.09;46.76
30463;BME280;17256;43.618;25.336;2022-09-09T08:39:37;100548.03;;;32.42;46.08
30463;BME280;17256;43.618;25.336;2022-09-09T08:42:37;100562.78;;;32.77;46.73
30463;BME280;17256;43.618;25.336;2022-09-09T08:45:19;100586.72;;;32.76;45.65
30463;BME280;17256;43.618;25.336;2022-09-09T08:48:27;100575.00;;;31.86;44.75
30463;BME280;17256;43.618;25.336;2022-09-09T08:50:56;100532.66;;;31.72;44.93
30463;BME280;17256;43.618;25.336;2022-09-09T08:53:29;100568.13;;;32.16;44.69
30463;BME280;17256;43.618;25.336;2022-09-09T08:56:10;100560.00;;;32.06;44.23
30463;BME280;17256;43.618;25.336;2022-09-09T08:58:50;100537.50;;;32.01;44.06
30463;BME280;17256;43.618;25.336;2022-09-09T09:06:54;100573.31;;;32.97;43.25
30463;BME280;17256;43.618;25.336;2022-09-09T09:09:32;100582.22;;;33.08;42.21
30463;BME280;17256;43.618;25.336;2022-09-09T09:12:00;100537.19;;;33.10;41.75
30463;BME280;17256;43.618;25.336;2022-09-09T09:14:34;100486.53;;;32.91;41.46
30463;BME280;17256;43.618;25.336;2022-09-09T09:17:17;100565.38;;;33.60;40.84
30463;BME280;17256;43.618;25.336;2022-09-09T09:19:51;100535.97;;;33.56;41.02
30463;BME280;17256;43.618;25.336;2022-09-09T09:22:23;100512.31;;;33.68;41.29
30463;BME280;17256;43.618;25.336;2022-09-09T09:30:36;100476.34;;;32.90;41.95
30463;BME280;17256;43.618;25.336;2022-09-09T09:33:24;100559.91;;;33.68;41.77
30463;BME280;17256;43.618;25.336;2022-09-09T09:35:52;100554.94;;;33.52;42.74
30463;BME280;17256;43.618;25.336;2022-09-09T09:38:23;100464.28;;;33.06;42.14
30463;BME280;17256;43.618;25.336;2022-09-09T09:40:57;100514.06;;;33.12;41.86
30463;BME280;17256;43.618;25.336;2022-09-09T09:43:37;100509.94;;;32.76;41.02
30463;BME280;17256;43.618;25.336;2022-09-09T09:46:27;100528.16;;;33.08;43.09
30463;BME280;17256;43.618;25.336;2022-09-09T09:49:03;100548.06;;;33.53;41.81
30463;BME280;17256;43.618;25.336;2022-09-09T09:51:32;100552.81;;;33.61;42.27
30463;BME280;17256;43.618;25.336;2022-09-09T09:54:09;100553.25;;;33.39;41.59
30463;BME280;17256;43.618;25.336;2022-09-09T09:56:40;100546.03;;;32.96;41.60
30463;BME280;17256;43.618;25.336;2022-09-09T09:59:23;100510.81;;;32.89;42.49
30463;BME280;17256;43.618;25.336;2022-09-09T10:01:49;100541.75;;;33.36;42.08
30463;BME280;17256;43.618;25.336;2022-09-09T10:04:19;100444.56;;;32.88;41.64
30463;BME280;17256;43.618;25.336;2022-09-09T10:06:47;100512.34;;;33.44;40.59
30463;BME280;17256;43.618;25.336;2022-09-09T10:09:26;100541.06;;;33.75;40.74
30463;BME280;17256;43.618;25.336;2022-09-09T10:22:51;100533.81;;;33.41;42.05
30463;BME280;17256;43.618;25.336;2022-09-09T10:25:23;100529.31;;;33.40;40.65
30463;BME280;17256;43.618;25.336;2022-09-09T10:28:10;100528.22;;;33.45;40.75
30463;BME280;17256;43.618;25.336;2022-09-09T10:36:29;100497.81;;;34.10;40.28
30463;BME280;17256;43.618;25.336;2022-09-09T10:39:15;100505.63;;;34.13;39.92
30463;BME280;17256;43.618;25.336;2022-09-09T10:42:13;100495.53;;;34.15;39.67
30463;BME280;17256;43.618;25.336;2022-09-09T10:45:15;100527.38;;;34.58;39.07
30463;BME280;17256;43.618;25.336;2022-09-09T10:48:04;100521.00;;;34.48;39.19
30463;BME280;17256;43.618;25.336;2022-09-09T10:51:00;100521.72;;;34.33;40.19
30463;BME280;17256;43.618;25.336;2022-09-09T10:56:11;100523.66;;;34.29;39.80
30463;BME280;17256;43.618;25.336;2022-09-09T11:01:24;100521.25;;;34.31;40.34
30463;BME280;17256;43.618;25.336;2022-09-09T11:03:56;100487.59;;;34.21;39.29
30463;BME280;17256;43.618;25.336;2022-09-09T11:06:36;100500.13;;;34.60;39.56
30463;BME280;17256;43.618;25.336;2022-09-09T11:09:04;100442.81;;;34.49;39.18
30463;BME280;17256;43.618;25.336;2022-09-09T11:11:53;100521.59;;;34.70;39.30
30463;BME280;17256;43.618;25.336;2022-09-09T11:17:18;100516.72;;;35.14;40.35
30463;BME280;17256;43.618;25.336;2022-09-09T11:19:43;100483.69;;;34.97;39.46
30463;BME280;17256;43.618;25.336;2022-09-09T11:24:52;100511.88;;;35.30;40.10
30463;BME280;17256;43.618;25.336;2022-09-09T11:30:32;100504.84;;;35.12;40.17
30463;BME280;17256;43.618;25.336;2022-09-09T11:38:46;100459.59;;;34.39;40.98
30463;BME280;17256;43.618;25.336;2022-09-09T11:41:13;100466.41;;;34.34;40.42
30463;BME280;17256;43.618;25.336;2022-09-09T11:43:49;100456.53;;;34.32;41.32
30463;BME280;17256;43.618;25.336;2022-09-09T11:46:20;100393.31;;;33.86;40.26
30463;BME280;17256;43.618;25.336;2022-09-09T11:49:21;100487.53;;;34.33;41.42
30463;BME280;17256;43.618;25.336;2022-09-09T11:51:50;100479.72;;;34.58;41.35
30463;BME280;17256;43.618;25.336;2022-09-09T11:54:33;100489.75;;;34.68;41.02
30463;BME280;17256;43.618;25.336;2022-09-09T11:57:02;100411.22;;;34.14;40.95
30463;BME280;17256;43.618;25.336;2022-09-09T11:59:32;100452.63;;;34.36;40.76
30463;BME280;17256;43.618;25.336;2022-09-09T12:01:59;100474.47;;;34.60;40.30
30463;BME280;17256;43.618;25.336;2022-09-09T12:04:32;100452.56;;;34.48;40.47
30463;BME280;17256;43.618;25.336;2022-09-09T12:09:46;100462.13;;;34.84;40.78
30463;BME280;17256;43.618;25.336;2022-09-09T12:17:21;100441.63;;;34.66;39.16
30463;BME280;17256;43.618;25.336;2022-09-09T12:19:48;100421.22;;;34.48;41.75
30463;BME280;17256;43.618;25.336;2022-09-09T12:22:40;100451.88;;;34.83;40.47
30463;BME280;17256;43.618;25.336;2022-09-09T12:28:22;100447.75;;;34.80;41.52
30463;BME280;17256;43.618;25.336;2022-09-09T12:33:17;100424.16;;;34.52;40.59
30463;BME280;17256;43.618;25.336;2022-09-09T12:35:49;100427.09;;;34.28;41.25
30463;BME280;17256;43.618;25.336;2022-09-09T12:38:39;100422.97;;;34.25;41.53
30463;BME280;17256;43.618;25.336;2022-09-09T12:41:05;100401.59;;;33.79;42.72
30463;BME280;17256;43.618;25.336;2022-09-09T12:43:31;100435.41;;;33.92;42.32
30463;BME280;17256;43.618;25.336;2022-09-09T12:46:03;100403.66;;;33.66;44.91
30463;BME280;17256;43.618;25.336;2022-09-09T12:48:39;100401.78;;;33.58;44.24
30463;BME280;17256;43.618;25.336;2022-09-09T12:51:21;100446.19;;;33.47;43.42
30463;BME280;17256;43.618;25.336;2022-09-09T12:53:50;100398.81;;;33.30;44.90
30463;BME280;17256;43.618;25.336;2022-09-09T12:56:21;100423.41;;;33.47;45.04
30463;BME280;17256;43.618;25.336;2022-09-09T12:58:50;100412.22;;;33.29;46.89
30463;BME280;17256;43.618;25.336;2022-09-09T13:01:24;100449.69;;;33.07;45.79
30463;BME280;17256;43.618;25.336;2022-09-09T13:03:50;100429.22;;;32.68;46.57
30463;BME280;17256;43.618;25.336;2022-09-09T13:06:24;100441.41;;;32.69;47.45
30463;BME280;17256;43.618;25.336;2022-09-09T13:08:54;100447.47;;;32.67;46.72
30463;BME280;17256;43.618;25.336;2022-09-09T13:11:24;100424.16;;;32.41;47.22
30463;BME280;17256;43.618;25.336;2022-09-09T13:13:56;100446.25;;;32.23;47.80
30463;BME280;17256;43.618;25.336;2022-09-09T13:16:29;100444.50;;;32.10;47.62
30463;BME280;17256;43.618;25.336;2022-09-09T13:19:16;100438.09;;;32.01;48.10
30463;BME280;17256;43.618;25.336;2022-09-09T13:21:42;100431.16;;;31.90;47.98
30463;BME280;17256;43.618;25.336;2022-09-09T13:24:29;100438.56;;;31.82;49.53
30463;BME280;17256;43.618;25.336;2022-09-09T13:27:02;100429.09;;;31.69;49.54
30463;BME280;17256;43.618;25.336;2022-09-09T13:29:28;100423.09;;;31.50;49.42
30463;BME280;17256;43.618;25.336;2022-09-09T13:32:04;100397.41;;;31.17;49.18
30463;BME280;17256;43.618;25.336;2022-09-09T13:34:35;100407.44;;;31.06;49.90
30463;BME280;17256;43.618;25.336;2022-09-09T13:37:06;100407.66;;;31.01;50.25
30463;BME280;17256;43.618;25.336;2022-09-09T13:39:35;100412.16;;;31.02;50.77
30463;BME280;17256;43.618;25.336;2022-09-09T13:42:02;100430.09;;;31.14;50.91
30463;BME280;17256;43.618;25.336;2022-09-09T13:44:31;100342.59;;;30.57;51.07
30463;BME280;17256;43.618;25.336;2022-09-09T13:49:39;100399.78;;;30.59;51.63
30463;BME280;17256;43.618;25.336;2022-09-09T13:52:13;100422.25;;;30.82;52.49
30463;BME280;17256;43.618;25.336;2022-09-09T13:54:41;100339.53;;;30.33;52.83
30463;BME280;17256;43.618;25.336;2022-09-09T13:57:20;100426.78;;;30.74;52.44
30463;BME280;17256;43.618;25.336;2022-09-09T13:59:46;100389.47;;;30.46;52.39
30463;BME280;17256;43.618;25.336;2022-09-09T14:02:13;100380.97;;;30.46;53.07
30463;BME280;17256;43.618;25.336;2022-09-09T14:04:39;100365.84;;;30.34;53.02
30463;BME280;17256;43.618;25.336;2022-09-09T14:07:11;100431.63;;;30.56;52.86
30463;BME280;17256;43.618;25.336;2022-09-09T14:09:38;100422.16;;;30.52;53.37
30463;BME280;17256;43.618;25.336;2022-09-09T14:12:04;100379.22;;;30.24;53.52
30463;BME280;17256;43.618;25.336;2022-09-09T14:14:30;100393.38;;;30.24;53.82
30463;BME280;17256;43.618;25.336;2022-09-09T14:16:58;100379.22;;;30.24;54.94
30463;BME280;17256;43.618;25.336;2022-09-09T14:19:23;100419.34;;;30.35;54.26
30463;BME280;17256;43.618;25.336;2022-09-09T14:21:49;100361.91;;;29.91;54.67
30463;BME280;17256;43.618;25.336;2022-09-09T14:24:22;100348.91;;;29.73;54.84
30463;BME280;17256;43.618;25.336;2022-09-09T14:26:48;100382.06;;;29.90;54.87
30463;BME280;17256;43.618;25.336;2022-09-09T14:29:14;100410.19;;;29.95;55.70
30463;BME280;17256;43.618;25.336;2022-09-09T14:31:40;100428.53;;;30.06;56.42
30463;BME280;17256;43.618;25.336;2022-09-09T14:34:07;100407.22;;;29.83;58.21
30463;BME280;17256;43.618;25.336;2022-09-09T14:36:33;100381.34;;;29.41;56.56
30463;BME280;17256;43.618;25.336;2022-09-09T14:38:58;100414.84;;;29.65;57.84
30463;BME280;17256;43.618;25.336;2022-09-09T14:41:24;100327.38;;;29.03;57.85
30463;BME280;17256;43.618;25.336;2022-09-09T14:43:50;100396.97;;;29.38;58.18
30463;BME280;17256;43.618;25.336;2022-09-09T14:46:18;100432.50;;;29.62;57.88
30463;BME280;17256;43.618;25.336;2022-09-09T14:48:44;100417.22;;;29.23;58.90
30463;BME280;17256;43.618;25.336;2022-09-09T14:51:12;100380.28;;;29.02;58.75
30463;BME280;17256;43.618;25.336;2022-09-09T14:53:41;100440.06;;;29.35;59.69
30463;BME280;17256;43.618;25.336;2022-09-09T14:56:16;100414.28;;;29.28;58.97
30463;BME280;17256;43.618;25.336;2022-09-09T14:58:56;100384.03;;;28.89;58.74
30463;BME280;17256;43.618;25.336;2022-09-09T15:01:22;100440.16;;;29.13;58.70
30463;BME280;17256;43.618;25.336;2022-09-09T15:03:59;100417.16;;;28.97;58.53
30463;BME280;17256;43.618;25.336;2022-09-09T15:06:29;100400.28;;;28.84;58.67
30463;BME280;17256;43.618;25.336;2022-09-09T15:08:58;100408.59;;;28.80;58.93
30463;BME280;17256;43.618;25.336;2022-09-09T15:11:29;100413.41;;;28.79;59.67
30463;BME280;17256;43.618;25.336;2022-09-09T15:13:56;100441.75;;;28.97;58.04
30463;BME280;17256;43.618;25.336;2022-09-09T15:16:24;100426.38;;;28.80;57.56
30463;BME280;17256;43.618;25.336;2022-09-09T15:18:52;100461.88;;;28.95;58.20
30463;BME280;17256;43.618;25.336;2022-09-09T15:21:20;100456.81;;;28.84;58.48
30463;BME280;17256;43.618;25.336;2022-09-09T15:23:50;100462.22;;;28.71;58.72
30463;BME280;17256;43.618;25.336;2022-09-09T15:26:17;100391.44;;;28.23;59.53
30463;BME280;17256;43.618;25.336;2022-09-09T15:28:48;100423.78;;;28.31;59.55
30463;BME280;17256;43.618;25.336;2022-09-09T15:31:26;100464.81;;;28.59;59.61
30463;BME280;17256;43.618;25.336;2022-09-09T15:34:13;100468.81;;;28.58;59.05
30463;BME280;17256;43.618;25.336;2022-09-09T15:36:48;100425.97;;;28.34;59.54
30463;BME280;17256;43.618;25.336;2022-09-09T15:39:16;100455.91;;;28.43;59.05
30463;BME280;17256;43.618;25.336;2022-09-09T15:41:43;100447.38;;;28.35;59.25
30463;BME280;17256;43.618;25.336;2022-09-09T15:44:09;100454.91;;;28.39;59.44
30463;BME280;17256;43.618;25.336;2022-09-09T15:46:43;100465.72;;;28.46;59.46
30463;BME280;17256;43.618;25.336;2022-09-09T15:49:23;100439.88;;;28.30;59.14
30463;BME280;17256;43.618;25.336;2022-09-09T15:51:56;100444.25;;;28.23;59.73